Stations météo

réclame
Mon MeteoGroup
Uccle, Belgique (6447): Température de l'air & dewpoint: 14.11.2019 11:00:00 - 20.11.2019 11:00:00 (CET)Uccle, Belgique (6447): Vitesse du vent & gusts: 14.11.2019 11:00:00 - 20.11.2019 11:00:00 (CET)Uccle, Belgique (6447): Direction du vent: 14.11.2019 11:00:00 - 20.11.2019 11:00:00 (CET)Uccle, Belgique (6447): reduced air pressure: 14.11.2019 11:00:00 - 20.11.2019 11:00:00 (CET)Uccle, Belgique (6447): Ensoleillement: 14.11.2019 11:00:00 - 20.11.2019 11:00:00 (CET)Uccle, Belgique (6447): Quantités de précipitations: 14.11.2019 11:00:00 - 20.11.2019 11:00:00 (CET)
Date & Time tt [°C] td [°C] ff [km/h] ff [knt] fx [km/h] fx [knt] dd ppp [hPa] sd [min] rr [mm]
20.11.2019 11:00:00 3,0 0,1 12 6 22 12 ESE 1017,3 60 0,0
20.11.2019 10:00:00 1,3 0,2 12 6 20 11 ESE 1017,6 58 0,1
20.11.2019 09:00:00 -0,7 -1,2 12 6 21 11 ESE 1017,7 19 0,0
20.11.2019 08:00:00 -2,0 -2,5 7 4 13 7 ESE 1017,8 0 0,0
20.11.2019 07:00:00 -2,3 -2,9 7 4 13 7 ESE 1017,9 0 0,0
20.11.2019 06:00:00 -2,1 -2,8 7 4 10 6 ESE 1017,9 0 0,0
20.11.2019 05:00:00 -1,2 -1,9 7 4 11 6 ESE 1018,2 0 0,0
20.11.2019 04:00:00 -0,9 -1,6 8 5 12 6 ESE 1018,5 0 0,0
20.11.2019 03:00:00 -0,8 -1,6 10 6 13 7 SE 1018,7 0 0,0
20.11.2019 02:00:00 -0,7 -1,7 10 5 15 8 SE 1018,9 0 0,0
20.11.2019 01:00:00 -0,1 -0,9 11 6 14 8 SE 1019,2 0 0,0
20.11.2019 00:00:00 -0,4 -1,2 10 5 11 6 SE 1019,3 0 0,0
19.11.2019 23:00:00 -0,5 -1,4 8 4 10 5 SSE 1019,2 0 0,0
19.11.2019 22:00:00 -0,1 -1,2 8 4 11 6 SSE 1019,2 0 0,0
19.11.2019 21:00:00 0,4 -0,9 7 4 9 5 SE 1019,1 0 0,0
19.11.2019 20:00:00 1,5 0,0 7 4 8 4 SSE 1018,8 0 0,0
19.11.2019 19:00:00 1,5 -0,3 7 4 10 5 S 1018,7 0 0,0
19.11.2019 18:00:00 2,4 -0,5 5 3 9 5 S 1018,5 0 0,0
19.11.2019 17:00:00 4,5 -0,5 6 3 13 7 SSW 1018,1 32 0,0
19.11.2019 16:00:00 5,9 1,3 7 4 20 11 SSW 1017,9 59 0,0
19.11.2019 15:00:00 7,5 1,7 10 6 21 11 WSW 1017,6 59 0,0
19.11.2019 14:00:00 7,5 2,5 10 5 22 12 W 1017,6 60 0,0
19.11.2019 13:00:00 6,9 2,9 7 4 19 10 WSW 1017,8 60 0,0
19.11.2019 12:00:00 6,2 3,5 8 4 22 12 SW 1017,9 60 0,0
19.11.2019 11:00:00 4,5 3,0 11 6 19 11 SW 1017,8 55 0,0
19.11.2019 10:00:00 3,5 2,8 6 4 12 7 SW 1017,2 34 0,0
19.11.2019 09:00:00 2,5 1,9 7 4 12 7 SSW 1016,6 5 0,0
19.11.2019 08:00:00 2,0 1,2 6 3 13 7 SW 1016,5 0 0,0
19.11.2019 07:00:00 2,5 1,6 7 4 13 7 SW 1015,8 0 0,0
19.11.2019 06:00:00 3,1 2,1 9 5 18 10 WSW 1015,6 0 0,0
19.11.2019 05:00:00 3,2 2,2 8 4 14 8 WSW 1015,2 0 0,0
19.11.2019 04:00:00 4,0 2,9 9 5 20 11 WSW 1015,1 0 0,0
19.11.2019 03:00:00 3,9 2,8 10 5 17 9 WSW 1014,9 0 0,0
19.11.2019 02:00:00 3,6 2,5 9 5 16 9 WSW 1014,7 0 0,0
19.11.2019 01:00:00 4,1 3,0 7 4 17 9 W 1014,3 0 0,0
19.11.2019 00:00:00 5,2 3,8 9 5 16 9 W 1013,7 0 0,2
18.11.2019 23:00:00 6,3 5,3 10 5 23 13 W 1013,3 0 0,0
18.11.2019 22:00:00 6,7 5,3 11 6 24 13 WNW 1012,5 0 0,1
18.11.2019 21:00:00 6,9 5,4 11 6 34 19 WNW 1011,7 0 0,0
18.11.2019 20:00:00 7,0 6,0 15 8 33 18 NW 1010,9 0 0,2
18.11.2019 19:00:00 7,0 6,0 18 10 32 17 WNW 1010,3 0 0,1
18.11.2019 18:00:00 7,2 6,7 16 9 28 15 NW 1010,0 0 0,9
18.11.2019 17:00:00 6,5 6,0 13 7 24 13 NW 1009,5 0 0,8
18.11.2019 16:00:00 5,7 5,1 7 4 18 10 W 1009,3 0 0,4
18.11.2019 15:00:00 5,3 4,6 8 4 13 7 SSW 1009,1 0 0,7
18.11.2019 14:00:00 4,9 3,9 4 2 12 7 SW 1009,3 0 0,5
18.11.2019 13:00:00 4,9 3,5 7 4 15 8 WSW 1009,4 0 0,4
18.11.2019 12:00:00 4,9 3,1 8 4 21 11 W 1009,6 0 0,4
18.11.2019 11:00:00 4,6 2,7 8 5 18 10 WNW 1009,6 0 0,0
18.11.2019 10:00:00 4,3 2,5 9 5 16 8 WNW 1009,6 0 0,0
18.11.2019 09:00:00 4,1 2,5 8 4 16 8 WNW 1009,7 0 0,0
18.11.2019 08:00:00 3,9 2,3 6 4 16 8 WNW 1009,5 0 0,0
18.11.2019 07:00:00 3,8 2,4 7 4 17 9 WNW 1009,0 0 0,0
18.11.2019 06:00:00 4,1 2,4 8 4 18 10 WNW 1008,7 0 0,1
18.11.2019 05:00:00 4,4 2,2 9 5 19 10 NNW 1008,8 0 0,0
18.11.2019 04:00:00 4,5 2,1 11 6 20 11 N 1009,1 0 0,0
18.11.2019 03:00:00 4,5 2,2 10 5 19 10 N 1009,2 0 0,0
18.11.2019 02:00:00 4,6 2,0 10 5 18 10 N 1009,1 0 0,0
18.11.2019 01:00:00 4,6 2,1 11 6 21 12 N 1009,4 0 0,0
18.11.2019 00:00:00 4,8 2,2 11 6 22 12 NNW 1009,1 0 0,0
17.11.2019 23:00:00 5,1 2,3 10 6 25 14 NNW 1009,4 0 0,0
17.11.2019 22:00:00 5,2 2,8 11 6 25 14 N 1009,7 0 0,0
17.11.2019 21:00:00 5,3 2,6 13 7 26 14 N 1009,6 0 0,0
17.11.2019 20:00:00 5,6 2,6 13 7 26 14 N 1009,9 0 0,0
17.11.2019 19:00:00 5,9 2,7 14 8 23 12 N 1009,7 0 0,0
17.11.2019 18:00:00 6,2 2,5 14 8 24 13 N 1010,1 0 0,0
17.11.2019 17:00:00 6,5 2,4 13 7 24 13 N 1009,9 0 0,0
17.11.2019 16:00:00 6,9 2,4 11 6 21 11 N 1010,3 0 0,0
17.11.2019 15:00:00 7,2 2,2 10 5 16 9 NNE 1010,3 12 0,0
17.11.2019 14:00:00 7,4 2,4 8 5 18 10 NE 1010,3 60 0,0
17.11.2019 13:00:00 7,2 2,2 11 6 20 11 NNE 1010,4 60 0,0
17.11.2019 12:00:00 7,3 3,2 9 5 17 9 ENE 1010,6 59 0,0
17.11.2019 11:00:00 5,4 2,7 7 4 11 6 NNE 1011,0 60 0,0
17.11.2019 10:00:00 2,9 2,3 0 0 8 4 N 1011,2 60 0,0
17.11.2019 09:00:00 0,9 0,3 7 4 12 6 ESE 1011,6 3 0,0
17.11.2019 08:00:00 0,5 0,0 8 4 9 5 SE 1011,5 0 0,0
17.11.2019 07:00:00 0,8 0,2 7 4 11 6 ESE 1011,0 0 0,0
17.11.2019 06:00:00 0,9 0,2 5 3 11 6 ESE 1010,5 0 0,0
17.11.2019 05:00:00 1,3 0,5 6 4 10 5 ESE 1010,5 0 0,0
17.11.2019 04:00:00 1,9 0,9 7 4 12 6 ESE 1010,9 0 0,0
17.11.2019 03:00:00 2,7 1,6 10 5 13 7 SSE 1011,0 0 0,0
17.11.2019 02:00:00 4,1 2,3 8 5 16 9 SSE 1010,6 0 0,0
17.11.2019 01:00:00 4,6 2,5 11 6 16 9 SSE 1010,9 0 0,0
17.11.2019 00:00:00 5,3 3,1 9 5 14 8 SE 1010,4 0 0,0
16.11.2019 23:00:00 5,4 3,2 10 5 14 7 SSE 1010,6 0 0,0
16.11.2019 22:00:00 5,1 3,1 6 3 9 5 SE 1010,5 0 0,0
16.11.2019 21:00:00 5,7 3,0 5 3 8 4 S 1010,4 0 0,0
16.11.2019 20:00:00 5,7 2,9 5 3 10 5 WSW 1010,2 0 0,0
16.11.2019 19:00:00 5,8 2,6 7 4 16 8 S 1009,4 0 0,0
16.11.2019 18:00:00 6,2 2,6 9 5 23 12 SSW 1008,8 0 0,0
16.11.2019 17:00:00 6,1 3,1 9 5 14 8 SSE 1008,3 0 0,0
16.11.2019 16:00:00 6,3 2,7 9 5 21 11 SSE 1007,5 42 0,0
16.11.2019 15:00:00 5,7 2,2 14 8 20 11 SSE 1007,6 7 0,0
16.11.2019 14:00:00 5,9 2,1 13 7 29 16 S 1007,9 50 0,0
16.11.2019 13:00:00 5,8 2,3 18 10 29 16 SSE 1007,6 34 0,0
16.11.2019 12:00:00 5,1 1,5 22 12 30 16 SSE 1007,7 55 0,0
16.11.2019 11:00:00 5,2 1,9 16 9 25 14 SSE 1007,6 59 0,0
16.11.2019 10:00:00 3,4 1,2 13 7 21 11 SSE 1007,3 59 0,0
16.11.2019 09:00:00 1,1 0,3 14 8 21 11 SSE 1006,9 24 0,0
16.11.2019 08:00:00 0,3 -0,5 12 7 18 10 SE 1006,3 0 0,0
16.11.2019 07:00:00 0,8 -0,1 11 6 18 10 SE 1005,6 0 0,0
16.11.2019 06:00:00 0,9 -0,1 13 7 18 10 SE 1005,0 0 0,0
16.11.2019 05:00:00 0,6 -0,5 10 6 21 12 SE 1004,9 0 0,0
16.11.2019 04:00:00 1,2 0,0 13 7 21 11 ESE 1005,0 0 0,0
16.11.2019 03:00:00 1,4 0,3 13 7 20 11 ESE 1004,7 0 0,0
16.11.2019 02:00:00 1,2 0,1 10 5 18 10 ESE 1004,5 0 0,0
16.11.2019 01:00:00 1,6 0,4 11 6 17 9 ESE 1004,4 0 0,0
16.11.2019 00:00:00 1,9 0,6 11 6 19 10 E 1003,7 0 0,0
15.11.2019 23:00:00 2,0 0,5 7 4 15 8 E 1003,2 0 0,0
15.11.2019 22:00:00 2,4 0,2 7 4 14 8 ESE 1002,7 0 0,0
15.11.2019 21:00:00 4,4 0,7 11 6 33 18 SSE 1002,2 0 0,0
15.11.2019 20:00:00 5,3 1,4 22 12 39 21 SSE 1001,7 0 0,0
15.11.2019 19:00:00 5,1 2,5 14 8 26 14 SSE 1000,9 0 0,0
15.11.2019 18:00:00 4,7 2,6 9 5 21 11 ESE 1000,4 0 0,0
15.11.2019 17:00:00 4,3 2,3 9 5 19 10 E 999,7 0 0,0
15.11.2019 16:00:00 4,2 2,0 9 5 21 12 E 999,2 0 0,0
15.11.2019 15:00:00 4,1 1,7 12 7 20 11 E 999,2 0 0,0
15.11.2019 14:00:00 3,8 1,6 8 5 21 12 E 999,1 0 0,0
15.11.2019 13:00:00 3,3 1,4 7 4 35 19 ENE 998,8 0 0,0
15.11.2019 12:00:00 3,1 1,3 14 7 30 16 NE 998,8 0 0,0
15.11.2019 11:00:00 2,9 1,3 13 7 31 17 NNE 998,9 0 0,0
15.11.2019 10:00:00 2,7 1,2 12 6 24 13 NNE 999,3 0 0,0
15.11.2019 09:00:00 2,6 1,2 11 6 32 18 NE 999,7 0 0,0
15.11.2019 08:00:00 2,7 1,4 18 10 30 16 NE 998,0 0 0,0
15.11.2019 07:00:00 2,9 1,6 14 8 31 17 NE 998,4 0 0,0
15.11.2019 06:00:00 3,2 2,0 16 9 29 16 NE 998,8 0 0,0
15.11.2019 05:00:00 3,6 2,1 15 8 27 15 NNE 998,7 0 0,0
15.11.2019 04:00:00 3,9 2,4 16 9 25 14 NNE 999,3 0 0,0
15.11.2019 03:00:00 4,5 2,9 11 6 23 12 NNE 1000,5 0 0,0
15.11.2019 02:00:00 4,6 2,7 6 4 18 10 N 1001,1 0 0,0
15.11.2019 01:00:00 5,1 3,0 11 6 18 10 NNE 1001,7 0 0,0
15.11.2019 00:00:00 4,8 3,1 8 5 13 7 NNE 1001,9 0 0,0
14.11.2019 23:00:00 4,6 3,2 7 4 16 8 ENE 1002,2 0 0,0
14.11.2019 22:00:00 4,5 3,2 8 4 19 10 E 1002,2 0 0,0
14.11.2019 21:00:00 4,8 3,4 8 5 11 6 ENE 1002,0 0 0,0
14.11.2019 20:00:00 4,7 3,1 6 3 16 8 ESE 1002,5 0 0,0
14.11.2019 19:00:00 4,8 3,0 7 4 14 7 E 1001,7 0 0,0
14.11.2019 18:00:00 5,5 3,2 6 3 16 9 SE 1001,9 0 0,0
14.11.2019 17:00:00 5,7 3,1 12 6 22 12 SE 1000,9 0 0,0
14.11.2019 16:00:00 5,9 3,2 15 8 23 12 SE 1000,9 0 0,0
14.11.2019 15:00:00 6,1 3,2 14 8 24 13 SE 1000,4 0 0,0
14.11.2019 14:00:00 6,0 3,2 14 8 29 16 SE 999,7 5 0,0
14.11.2019 13:00:00 5,7 3,3 18 10 40 21 SSE 999,8 26 0,0
14.11.2019 12:00:00 5,0 3,6 22 12 34 19 SSE 999,8 0 0,1
14.11.2019 11:00:00 4,7 3,5 17 9 34 18 SSE 999,3 0 0,6

tt = Température de l'air
td = dewpoint
ff = Vitesse du vent
fx = gusts
dd = Direction du vent
ppp = reduced air pressure
sd = Ensoleillement
rr = Quantités de précipitations

stations d'obs. à proximité